createdAt,value
2023-05-04T00:00:59.810Z,53.67
2023-05-04T00:03:26.488Z,57.08
2023-05-04T00:05:53.448Z,51.20
2023-05-04T00:08:21.167Z,49.30
2023-05-04T00:10:47.672Z,50.17
2023-05-04T00:13:14.203Z,53.35
2023-05-04T00:15:40.836Z,50.05
2023-05-04T00:18:07.689Z,47.70
2023-05-04T00:20:34.493Z,48.92
2023-05-04T00:23:00.952Z,44.03
2023-05-04T00:25:27.483Z,49.40
2023-05-04T00:27:53.947Z,43.45
2023-05-04T00:30:20.494Z,40.72
2023-05-04T00:32:47.133Z,49.85
2023-05-04T00:35:13.802Z,44.25
2023-05-04T00:37:40.404Z,45.28
2023-05-04T00:40:07.509Z,53.63
2023-05-04T00:42:34.244Z,48.33
2023-05-04T00:45:00.938Z,50.42
2023-05-04T00:47:27.697Z,50.75
2023-05-04T00:49:54.328Z,47.17
2023-05-04T00:52:20.900Z,43.45
2023-05-04T00:54:47.626Z,51.13
2023-05-04T00:57:15.920Z,42.60
2023-05-04T00:59:42.622Z,40.53
2023-05-04T01:02:09.275Z,51.05
2023-05-04T01:04:35.931Z,51.17
2023-05-04T01:07:02.411Z,47.40
2023-05-04T01:09:37.520Z,48.38
2023-05-04T01:12:10.021Z,45.00
2023-05-04T01:14:37.246Z,46.97
2023-05-04T01:17:05.259Z,48.83
2023-05-04T01:19:31.981Z,47.08
2023-05-04T01:21:58.575Z,43.78
2023-05-04T01:24:25.876Z,52.85
2023-05-04T01:26:55.333Z,49.97
2023-05-04T01:29:32.804Z,44.67
2023-05-04T01:31:59.888Z,45.50
2023-05-04T01:34:26.502Z,46.63
2023-05-04T01:36:54.047Z,52.45
2023-05-04T01:39:20.675Z,47.88
2023-05-04T01:41:47.167Z,47.40
2023-05-04T01:44:15.339Z,52.20
2023-05-04T01:46:42.112Z,52.90
2023-05-04T01:49:08.698Z,51.15
2023-05-04T01:51:35.151Z,59.75
2023-05-04T01:54:01.786Z,53.97
2023-05-04T01:56:28.287Z,55.75
2023-05-04T01:58:54.855Z,61.28
2023-05-04T02:01:21.452Z,76.57
2023-05-04T02:03:48.277Z,53.17
2023-05-04T02:06:14.964Z,53.38
2023-05-04T02:08:41.503Z,62.00
2023-05-04T02:11:08.028Z,61.85
2023-05-04T02:13:34.514Z,69.65
2023-05-04T02:16:01.600Z,77.20
2023-05-04T02:18:28.162Z,74.20
2023-05-04T02:20:54.611Z,76.07
2023-05-04T02:23:21.218Z,76.72
2023-05-04T02:25:47.684Z,74.50
2023-05-04T02:28:14.144Z,77.85
2023-05-04T02:30:41.560Z,75.93
2023-05-04T02:33:08.491Z,76.72
2023-05-04T02:35:35.553Z,77.28
2023-05-04T02:38:02.179Z,79.88
2023-05-04T02:40:28.662Z,84.60
2023-05-04T02:42:57.206Z,81.35
2023-05-04T02:45:23.802Z,80.05
2023-05-04T02:47:50.304Z,75.95
2023-05-04T02:50:16.883Z,80.25
2023-05-04T02:52:43.456Z,82.10
2023-05-04T02:55:10.055Z,85.95
2023-05-04T02:57:36.522Z,81.95
2023-05-04T03:00:04.774Z,81.47
2023-05-04T03:02:31.559Z,85.97
2023-05-04T03:04:58.223Z,86.13
2023-05-04T03:07:25.809Z,83.80
2023-05-04T03:09:52.293Z,83.95
2023-05-04T03:12:18.971Z,80.88
2023-05-04T03:14:46.238Z,83.40
2023-05-04T03:17:12.830Z,89.07
2023-05-04T03:19:39.323Z,89.55
2023-05-04T03:22:06.465Z,90.15
2023-05-04T03:24:33.062Z,88.75
2023-05-04T03:26:59.533Z,84.63
2023-05-04T03:29:26.413Z,86.82
2023-05-04T03:31:53.397Z,89.15
2023-05-04T03:34:21.783Z,84.85
2023-05-04T03:36:52.657Z,84.25
2023-05-04T03:39:19.173Z,84.10
2023-05-04T03:41:46.041Z,78.13
2023-05-04T03:44:12.561Z,83.00
2023-05-04T03:46:39.126Z,89.68
2023-05-04T03:49:05.683Z,80.93
2023-05-04T03:51:32.240Z,78.88
2023-05-04T03:53:58.684Z,84.13
2023-05-04T03:56:25.792Z,74.43
2023-05-04T03:58:52.228Z,75.07
2023-05-04T04:01:23.057Z,79.03
2023-05-04T04:03:49.818Z,75.57
2023-05-04T04:06:18.170Z,70.90
2023-05-04T04:08:45.766Z,70.22
2023-05-04T04:11:12.234Z,74.53
2023-05-04T04:13:38.890Z,76.28
2023-05-04T04:16:05.583Z,73.75
2023-05-04T04:18:32.291Z,67.50
2023-05-04T04:20:58.799Z,66.22
2023-05-04T04:23:25.422Z,70.60
2023-05-04T04:25:53.912Z,61.85
2023-05-04T04:28:20.462Z,66.10
2023-05-04T04:30:46.956Z,60.10
2023-05-04T04:33:13.440Z,49.92
2023-05-04T04:35:40.008Z,47.58
2023-05-04T04:38:07.104Z,47.58
2023-05-04T04:40:33.701Z,42.22
2023-05-04T04:43:00.199Z,43.22
2023-05-04T04:45:26.923Z,47.15
2023-05-04T04:47:53.477Z,38.00
2023-05-04T04:50:20.113Z,37.08
2023-05-04T04:52:46.674Z,50.33
2023-05-04T04:55:13.396Z,70.35
2023-05-04T04:57:39.906Z,50.92
2023-05-04T05:00:15.355Z,87.07
2023-05-04T05:02:42.016Z,118.05
2023-05-04T05:05:08.949Z,95.50
2023-05-04T05:07:36.457Z,113.20
2023-05-04T05:10:03.265Z,165.32
2023-05-04T05:12:30.015Z,200.82
2023-05-04T05:14:56.645Z,268.58
2023-05-04T05:17:23.191Z,331.00
2023-05-04T05:19:50.081Z,338.20
2023-05-04T05:22:16.672Z,325.10
2023-05-04T05:24:43.253Z,300.65
2023-05-04T05:27:10.095Z,264.85
2023-05-04T05:29:37.247Z,252.00
2023-05-04T05:32:04.471Z,253.18
2023-05-04T05:34:31.325Z,257.27
2023-05-04T05:36:58.337Z,259.02
2023-05-04T05:39:24.845Z,267.77
2023-05-04T05:41:51.385Z,261.80
2023-05-04T05:44:17.888Z,237.90
2023-05-04T05:46:44.481Z,243.30
2023-05-04T05:49:11.469Z,252.00
2023-05-04T05:51:37.924Z,250.00
2023-05-04T05:54:04.473Z,255.68
2023-05-04T05:56:31.229Z,253.68
2023-05-04T05:58:57.867Z,246.88
2023-05-04T06:01:24.516Z,201.00
2023-05-04T06:03:51.080Z,170.90
2023-05-04T06:06:17.749Z,174.48
2023-05-04T06:08:44.267Z,206.07
2023-05-04T06:11:11.806Z,162.35
2023-05-04T06:13:38.457Z,158.98
2023-05-04T06:16:05.014Z,153.52
2023-05-04T06:18:31.752Z,142.45
2023-05-04T06:20:59.508Z,140.40
2023-05-04T06:23:27.203Z,148.25
2023-05-04T06:25:53.635Z,146.38
2023-05-04T06:28:20.176Z,148.48
2023-05-04T06:30:46.946Z,187.52
2023-05-04T06:33:13.461Z,198.00
2023-05-04T06:35:39.941Z,189.00
2023-05-04T06:38:06.430Z,194.68
2023-05-04T06:40:32.858Z,197.32
2023-05-04T06:42:59.456Z,223.52
2023-05-04T06:45:25.976Z,241.23
2023-05-04T06:47:52.840Z,261.73
2023-05-04T06:50:19.445Z,297.42
2023-05-04T06:52:46.477Z,291.23
2023-05-04T06:55:13.902Z,235.55
2023-05-04T06:57:40.580Z,230.45
2023-05-04T07:00:08.476Z,223.20
2023-05-04T07:02:35.058Z,213.15
2023-05-04T07:05:02.610Z,224.43
2023-05-04T07:07:29.044Z,207.10
2023-05-04T07:09:55.492Z,211.35
2023-05-04T07:12:21.935Z,217.27
2023-05-04T07:14:48.423Z,216.00
2023-05-04T07:17:14.972Z,250.48
2023-05-04T07:19:41.448Z,244.75
2023-05-04T07:22:10.319Z,259.98
2023-05-04T07:24:36.889Z,249.70
2023-05-04T07:27:03.529Z,255.20
2023-05-04T07:29:30.114Z,260.58
2023-05-04T07:31:56.805Z,244.45
2023-05-04T07:34:30.504Z,228.88
2023-05-04T07:37:00.666Z,204.60
2023-05-04T07:39:27.143Z,152.13
2023-05-04T07:41:54.425Z,158.68
2023-05-04T07:44:21.108Z,142.27
2023-05-04T07:46:47.606Z,156.55
2023-05-04T07:49:14.046Z,159.93
2023-05-04T07:51:40.598Z,161.30
2023-05-04T07:54:07.091Z,179.95
2023-05-04T07:56:34.962Z,172.38
2023-05-04T07:59:01.390Z,190.38
2023-05-04T08:01:27.854Z,163.75
2023-05-04T08:03:54.371Z,144.73
2023-05-04T08:06:21.991Z,129.32
2023-05-04T08:08:51.954Z,131.63
2023-05-04T08:11:20.978Z,124.80
2023-05-04T08:13:51.138Z,126.00
2023-05-04T08:16:17.623Z,118.90
2023-05-04T08:18:44.116Z,107.65
2023-05-04T08:21:10.678Z,112.35
2023-05-04T08:23:37.202Z,110.82
2023-05-04T08:26:04.598Z,112.20
2023-05-04T08:28:31.266Z,107.00
2023-05-04T08:30:58.050Z,103.07
2023-05-04T08:33:24.848Z,99.57
2023-05-04T08:35:51.626Z,96.30
2023-05-04T08:38:18.113Z,96.78
2023-05-04T08:40:44.616Z,96.93
2023-05-04T08:43:11.356Z,314.60
2023-05-04T08:45:39.537Z,233.90
2023-05-04T08:48:07.137Z,219.30
2023-05-04T08:50:34.370Z,222.80
2023-05-04T08:53:03.709Z,198.60
2023-05-04T08:55:32.153Z,204.82
2023-05-04T08:57:59.636Z,197.90
2023-05-04T09:00:26.584Z,179.25
2023-05-04T09:02:53.257Z,199.05
2023-05-04T09:05:19.883Z,194.05
2023-05-04T09:07:48.725Z,176.80
2023-05-04T09:10:15.198Z,174.43
2023-05-04T09:12:42.569Z,176.18
2023-05-04T09:15:15.494Z,154.23
2023-05-04T09:17:57.112Z,158.98
2023-05-04T09:20:25.878Z,150.45
2023-05-04T09:23:02.564Z,130.32
2023-05-04T09:25:29.073Z,131.18
2023-05-04T09:27:56.170Z,105.25
2023-05-04T09:30:22.726Z,86.75
2023-05-04T09:32:49.981Z,84.10
2023-05-04T09:35:29.250Z,81.05
2023-05-04T09:37:58.941Z,72.70
2023-05-04T09:40:32.639Z,66.22
2023-05-04T09:42:59.700Z,64.32
2023-05-04T09:45:26.355Z,63.50
2023-05-04T09:47:54.457Z,54.72
2023-05-04T09:50:26.706Z,61.65
2023-05-04T09:52:53.441Z,59.65
2023-05-04T09:55:20.509Z,80.35
2023-05-04T09:57:48.496Z,71.40
2023-05-04T10:00:19.391Z,68.97
2023-05-04T10:02:46.645Z,65.25
2023-05-04T10:05:17.905Z,70.28
2023-05-04T10:07:45.436Z,64.10
2023-05-04T10:10:15.493Z,57.97
2023-05-04T10:12:44.004Z,59.10
2023-05-04T10:15:11.902Z,58.65
2023-05-04T10:17:38.663Z,74.43
2023-05-04T10:20:24.240Z,73.88
2023-05-04T10:22:53.727Z,67.80
2023-05-04T10:25:29.595Z,79.03
2023-05-04T10:28:05.325Z,79.80
2023-05-04T10:30:32.045Z,65.80
2023-05-04T10:32:59.006Z,60.70
2023-05-04T10:35:26.112Z,59.30
2023-05-04T10:37:54.617Z,58.50
2023-05-04T10:40:33.586Z,62.30
2023-05-04T10:43:00.026Z,64.60
2023-05-04T10:45:39.553Z,62.58
2023-05-04T10:48:07.939Z,82.13
2023-05-04T10:50:50.441Z,77.22
2023-05-04T10:53:17.658Z,66.57
2023-05-04T10:55:45.521Z,67.47
2023-05-04T10:58:20.191Z,66.72
2023-05-04T11:00:47.534Z,83.35
2023-05-04T11:03:14.476Z,66.18
2023-05-04T11:05:45.097Z,85.03
2023-05-04T11:08:18.370Z,60.65
2023-05-04T11:10:46.141Z,57.78
2023-05-04T11:13:12.649Z,56.58
2023-05-04T11:15:48.883Z,60.60
2023-05-04T11:18:16.882Z,62.17
2023-05-04T11:20:44.385Z,69.18
2023-05-04T11:23:15.845Z,62.85
2023-05-04T11:25:42.362Z,68.28
2023-05-04T11:28:08.903Z,63.63
2023-05-04T11:30:42.334Z,66.28
2023-05-04T11:33:12.900Z,73.72
2023-05-04T11:35:40.088Z,85.60
2023-05-04T11:38:07.233Z,74.10
2023-05-04T11:40:34.594Z,67.65
2023-05-04T11:43:02.403Z,76.95
2023-05-04T11:45:28.984Z,68.30
2023-05-04T11:47:56.876Z,71.63
2023-05-04T11:50:23.671Z,76.95
2023-05-04T11:52:50.240Z,76.38
2023-05-04T11:55:27.417Z,78.47
2023-05-04T11:57:57.554Z,81.20
2023-05-04T12:00:34.065Z,83.57
2023-05-04T12:03:01.595Z,88.85
2023-05-04T12:05:28.640Z,80.85
2023-05-04T12:07:55.231Z,84.85
2023-05-04T12:10:25.157Z,84.90
2023-05-04T12:12:51.706Z,90.30
2023-05-04T12:15:27.069Z,77.35
2023-05-04T12:17:53.615Z,87.43
2023-05-04T12:20:24.479Z,76.78
2023-05-04T12:22:51.250Z,89.25
2023-05-04T12:25:18.229Z,87.88
2023-05-04T12:27:44.708Z,78.25
2023-05-04T12:30:11.780Z,86.95
2023-05-04T12:32:38.692Z,81.75
2023-05-04T12:35:06.570Z,82.65
2023-05-04T12:37:33.586Z,83.65
2023-05-04T12:40:00.242Z,81.35
2023-05-04T12:42:26.792Z,82.00
2023-05-04T12:44:53.827Z,86.55
2023-05-04T12:47:23.923Z,85.90
2023-05-04T12:49:50.548Z,84.28
2023-05-04T12:52:17.050Z,83.45
2023-05-04T12:54:43.510Z,81.00
2023-05-04T12:57:10.672Z,78.68
2023-05-04T12:59:37.110Z,86.78
2023-05-04T13:02:04.069Z,75.60
2023-05-04T13:04:30.813Z,81.30
2023-05-04T13:06:57.257Z,84.20
2023-05-04T13:09:23.761Z,79.95
2023-05-04T13:11:50.279Z,79.38
2023-05-04T13:14:16.750Z,76.30
2023-05-04T13:16:43.313Z,84.57
2023-05-04T13:19:09.777Z,88.30
2023-05-04T13:21:36.608Z,82.88
2023-05-04T13:24:03.232Z,102.30
2023-05-04T13:26:29.699Z,79.40
2023-05-04T13:28:56.274Z,89.75
2023-05-04T13:31:22.752Z,87.32
2023-05-04T13:33:50.623Z,76.75
2023-05-04T13:36:17.350Z,91.03
2023-05-04T13:38:43.851Z,85.50
2023-05-04T13:41:10.357Z,78.85
2023-05-04T13:43:36.826Z,79.97
2023-05-04T13:46:03.855Z,85.13
2023-05-04T13:48:32.745Z,77.97
2023-05-04T13:50:59.270Z,75.22
2023-05-04T13:53:26.117Z,90.72
2023-05-04T13:55:52.636Z,74.15
2023-05-04T13:58:19.088Z,68.97
2023-05-04T14:00:45.649Z,75.57
2023-05-04T14:03:12.738Z,69.70
2023-05-04T14:05:39.537Z,101.97
2023-05-04T14:08:06.145Z,71.53
2023-05-04T14:10:33.175Z,75.35
2023-05-04T14:13:00.630Z,68.13
2023-05-04T14:15:27.638Z,72.93
2023-05-04T14:17:54.143Z,73.60
2023-05-04T14:20:20.642Z,64.43
2023-05-04T14:22:47.063Z,70.18
2023-05-04T14:25:14.120Z,69.38
2023-05-04T14:27:42.059Z,74.30
2023-05-04T14:30:09.873Z,66.38
2023-05-04T14:32:36.645Z,62.00
2023-05-04T14:35:08.277Z,61.53
2023-05-04T14:37:36.551Z,64.63
2023-05-04T14:40:10.610Z,65.38
2023-05-04T14:42:38.401Z,60.65
2023-05-04T14:45:05.688Z,64.90
2023-05-04T14:47:33.480Z,65.60
2023-05-04T14:50:01.340Z,66.88
2023-05-04T14:52:27.959Z,65.13
2023-05-04T14:54:54.467Z,58.08
2023-05-04T14:57:21.144Z,60.70
2023-05-04T14:59:47.700Z,56.08
2023-05-04T15:02:14.337Z,53.15
2023-05-04T15:04:40.858Z,53.47
2023-05-04T15:07:08.297Z,54.55
2023-05-04T15:09:35.056Z,52.47
2023-05-04T15:12:02.125Z,52.72
2023-05-04T15:14:28.690Z,48.60
2023-05-04T15:16:55.439Z,59.38
2023-05-04T15:19:21.884Z,49.55
2023-05-04T15:21:48.977Z,47.67
2023-05-04T15:24:15.594Z,40.80
2023-05-04T15:26:42.037Z,44.67
2023-05-04T15:29:08.724Z,51.47
2023-05-04T15:31:35.236Z,48.20
2023-05-04T15:34:02.715Z,45.85
2023-05-04T15:36:30.845Z,40.20
2023-05-04T15:38:57.612Z,42.78
2023-05-04T15:41:24.536Z,37.60
2023-05-04T15:43:51.537Z,51.67
2023-05-04T15:46:18.268Z,44.53
2023-05-04T15:48:44.974Z,41.13
2023-05-04T15:51:12.477Z,45.45
2023-05-04T15:53:41.719Z,40.83
2023-05-04T15:56:08.546Z,43.65
2023-05-04T15:58:35.198Z,42.15
2023-05-04T16:01:04.193Z,40.50
2023-05-04T16:03:31.660Z,31.88
2023-05-04T16:05:58.688Z,38.58
2023-05-04T16:08:25.417Z,37.17
2023-05-04T16:10:53.506Z,31.58
2023-05-04T16:13:20.583Z,39.35
2023-05-04T16:15:51.311Z,32.88
2023-05-04T16:18:18.578Z,32.80
2023-05-04T16:20:48.249Z,38.78
2023-05-04T16:23:15.663Z,39.20
2023-05-04T16:25:42.492Z,45.88
2023-05-04T16:28:09.363Z,41.22
2023-05-04T16:30:36.095Z,36.15
2023-05-04T16:33:03.161Z,40.38
2023-05-04T16:35:30.522Z,41.63
2023-05-04T16:38:10.767Z,50.92
2023-05-04T16:40:42.813Z,44.78
2023-05-04T16:43:10.559Z,36.65
2023-05-04T16:45:38.153Z,37.08
2023-05-04T16:48:05.535Z,42.13
2023-05-04T16:50:32.350Z,43.97
2023-05-04T16:52:59.460Z,40.33
2023-05-04T16:55:28.958Z,50.97
2023-05-04T16:57:56.753Z,50.22
2023-05-04T17:00:23.903Z,52.20
2023-05-04T17:02:51.749Z,46.97
2023-05-04T17:05:19.456Z,45.85
2023-05-04T17:07:46.568Z,47.00
2023-05-04T17:10:14.996Z,43.47
2023-05-04T17:12:42.517Z,67.07
2023-05-04T17:15:09.898Z,49.33
2023-05-04T17:17:36.916Z,47.47
2023-05-04T17:20:04.182Z,49.63
2023-05-04T17:22:31.184Z,51.22
2023-05-04T17:24:58.246Z,49.28
2023-05-04T17:27:25.190Z,44.95
2023-05-04T17:29:52.281Z,51.05
2023-05-04T17:32:19.281Z,47.03
2023-05-04T17:34:46.149Z,50.10
2023-05-04T17:37:13.053Z,52.38
2023-05-04T17:39:40.141Z,52.88
2023-05-04T17:42:07.322Z,50.05
2023-05-04T17:44:34.615Z,58.50
2023-05-04T17:47:01.355Z,56.88
2023-05-04T17:49:28.139Z,57.03
2023-05-04T17:51:56.684Z,57.00
2023-05-04T17:54:23.637Z,52.83
2023-05-04T17:56:50.418Z,52.10
2023-05-04T17:59:17.872Z,49.90
2023-05-04T18:01:44.659Z,59.97
2023-05-04T18:04:11.453Z,61.95
2023-05-04T18:06:38.028Z,71.53
2023-05-04T18:09:04.966Z,71.40
2023-05-04T18:11:31.774Z,78.13
2023-05-04T18:13:58.354Z,88.95
2023-05-04T18:16:25.063Z,92.10
2023-05-04T18:18:52.133Z,77.25
2023-05-04T18:21:18.889Z,82.25
2023-05-04T18:23:46.305Z,81.75
2023-05-04T18:26:20.042Z,75.20
2023-05-04T18:28:46.685Z,83.18
2023-05-04T18:31:14.157Z,77.25
2023-05-04T18:33:41.023Z,82.97
2023-05-04T18:36:07.735Z,90.50
2023-05-04T18:38:35.595Z,86.43
2023-05-04T18:41:02.490Z,94.32
2023-05-04T18:43:29.176Z,92.00
2023-05-04T18:45:55.769Z,90.22
2023-05-04T18:48:22.699Z,82.35
2023-05-04T18:50:57.087Z,78.00
2023-05-04T18:53:24.344Z,81.15
2023-05-04T18:56:20.677Z,103.38
2023-05-04T18:58:47.241Z,112.45
2023-05-04T19:01:13.803Z,68.07
2023-05-04T19:03:40.528Z,48.25
2023-05-04T19:06:07.832Z,46.60
2023-05-04T19:08:37.919Z,40.03
2023-05-04T19:11:04.505Z,29.67
2023-05-04T19:13:31.355Z,24.67
2023-05-04T19:15:58.122Z,17.23
2023-05-04T19:18:24.810Z,15.15
2023-05-04T19:20:51.444Z,17.67
2023-05-04T19:23:17.999Z,17.05
2023-05-04T19:25:45.330Z,18.50
2023-05-04T19:28:11.958Z,19.15
2023-05-04T19:30:39.143Z,16.73
2023-05-04T19:33:06.549Z,20.05
2023-05-04T19:35:33.118Z,15.82
2023-05-04T19:38:01.422Z,19.08
2023-05-04T19:40:28.024Z,26.30
2023-05-04T19:42:54.562Z,20.55
2023-05-04T19:45:21.070Z,20.60
2023-05-04T19:47:48.497Z,20.80
2023-05-04T19:50:16.478Z,18.80
2023-05-04T19:52:43.049Z,24.33
2023-05-04T19:55:09.875Z,34.42
2023-05-04T19:57:36.649Z,20.92
2023-05-04T20:00:03.602Z,25.13
2023-05-04T20:02:38.472Z,23.70
2023-05-04T20:05:05.744Z,19.13
2023-05-04T20:07:32.373Z,28.25
2023-05-04T20:09:59.034Z,31.17
2023-05-04T20:12:26.518Z,30.23
2023-05-04T20:14:53.007Z,27.67
2023-05-04T20:17:19.569Z,23.98
2023-05-04T20:19:46.290Z,50.35
2023-05-04T20:22:13.006Z,47.17
2023-05-04T20:24:40.732Z,50.38
2023-05-04T20:27:07.262Z,50.45
2023-05-04T20:29:33.963Z,53.10
2023-05-04T20:32:05.197Z,52.13
2023-05-04T20:34:31.958Z,52.75
2023-05-04T20:36:58.495Z,49.35
2023-05-04T20:39:25.019Z,52.92
2023-05-04T20:41:51.648Z,48.53
2023-05-04T20:44:18.177Z,49.88
2023-05-04T20:46:45.263Z,48.47
2023-05-04T20:49:12.070Z,45.30
2023-05-04T20:51:38.604Z,43.90
2023-05-04T20:54:05.240Z,39.65
2023-05-04T20:56:31.775Z,39.28
2023-05-04T20:58:58.326Z,41.85
2023-05-04T21:01:24.996Z,42.28
2023-05-04T21:03:51.613Z,37.47
2023-05-04T21:06:18.338Z,37.35
2023-05-04T21:08:44.963Z,36.10
2023-05-04T21:11:11.504Z,36.40
2023-05-04T21:13:38.048Z,35.65
2023-05-04T21:16:04.728Z,35.85
2023-05-04T21:18:31.292Z,32.10
2023-05-04T21:20:57.799Z,32.60
2023-05-04T21:23:25.123Z,34.10
2023-05-04T21:25:59.305Z,31.73
2023-05-04T21:28:25.942Z,34.08
2023-05-04T21:30:52.585Z,30.98
2023-05-04T21:33:19.133Z,29.48
2023-05-04T21:35:45.808Z,29.23
2023-05-04T21:38:12.957Z,27.58
2023-05-04T21:40:39.964Z,30.40
2023-05-04T21:43:06.493Z,28.23
2023-05-04T21:45:33.163Z,26.98
2023-05-04T21:47:59.717Z,28.60
2023-05-04T21:50:26.400Z,27.17
2023-05-04T21:52:52.988Z,28.00
2023-05-04T21:55:19.799Z,27.38
2023-05-04T21:57:46.555Z,27.58
2023-05-04T22:00:17.702Z,30.85
2023-05-04T22:02:44.930Z,25.55
2023-05-04T22:05:11.669Z,28.10
2023-05-04T22:07:38.233Z,27.85
2023-05-04T22:10:05.128Z,24.95
2023-05-04T22:12:31.817Z,24.10
2023-05-04T22:14:58.708Z,24.05
2023-05-04T22:17:25.299Z,26.65
2023-05-04T22:19:51.780Z,23.98
2023-05-04T22:22:18.454Z,26.25
2023-05-04T22:24:44.944Z,24.58
2023-05-04T22:27:11.477Z,22.58
2023-05-04T22:29:38.053Z,26.80
2023-05-04T22:32:04.761Z,23.67
2023-05-04T22:34:31.226Z,25.38
2023-05-04T22:36:57.774Z,22.50
2023-05-04T22:39:24.244Z,21.85
2023-05-04T22:41:50.739Z,20.38
2023-05-04T22:44:17.262Z,20.55
2023-05-04T22:46:43.943Z,22.30
2023-05-04T22:49:10.514Z,17.88
2023-05-04T22:51:37.143Z,19.45
2023-05-04T22:54:03.900Z,17.17
2023-05-04T22:56:32.587Z,20.55
2023-05-04T22:58:59.236Z,17.77
2023-05-04T23:01:27.577Z,19.08
2023-05-04T23:03:54.435Z,16.13
2023-05-04T23:06:21.275Z,16.20
2023-05-04T23:08:47.827Z,18.67
2023-05-04T23:11:14.289Z,15.82
2023-05-04T23:13:41.780Z,16.55
2023-05-04T23:16:08.344Z,16.50
2023-05-04T23:18:34.857Z,17.98
2023-05-04T23:21:01.313Z,12.77
2023-05-04T23:23:28.085Z,15.10
2023-05-04T23:25:54.699Z,15.20
2023-05-04T23:28:21.344Z,12.23
2023-05-04T23:30:47.869Z,15.70
2023-05-04T23:33:14.478Z,11.90
2023-05-04T23:35:41.111Z,13.80
2023-05-04T23:38:07.659Z,12.93
2023-05-04T23:40:34.902Z,12.93
2023-05-04T23:43:01.592Z,11.20
2023-05-04T23:45:28.241Z,10.05
2023-05-04T23:47:54.874Z,10.80
2023-05-04T23:50:21.503Z,10.88
2023-05-04T23:52:48.173Z,11.18
2023-05-04T23:55:14.644Z,10.70
2023-05-04T23:57:43.135Z,9.77
